createdAt,value
2023-04-18T00:02:02.955Z,7.50
2023-04-18T00:04:50.651Z,8.45
2023-04-18T00:07:36.617Z,6.55
2023-04-18T00:10:22.457Z,7.53
2023-04-18T00:13:08.368Z,7.20
2023-04-18T00:15:54.333Z,9.05
2023-04-18T00:18:40.253Z,7.30
2023-04-18T00:21:25.893Z,8.27
2023-04-18T00:24:11.696Z,9.25
2023-04-18T00:26:57.288Z,11.68
2023-04-18T00:29:42.602Z,9.20
2023-04-18T00:32:28.536Z,9.00
2023-04-18T00:35:14.241Z,7.57
2023-04-18T00:37:59.852Z,9.27
2023-04-18T00:40:45.357Z,9.40
2023-04-18T00:43:30.757Z,9.82
2023-04-18T00:46:16.294Z,9.00
2023-04-18T00:49:02.542Z,8.60
2023-04-18T00:51:48.379Z,11.05
2023-04-18T00:54:34.057Z,9.48
2023-04-18T00:57:19.385Z,7.75
2023-04-18T01:00:10.143Z,7.93
2023-04-18T01:02:56.114Z,9.07
2023-04-18T01:05:43.178Z,7.50
2023-04-18T01:08:28.626Z,8.13
2023-04-18T01:11:16.500Z,8.52
2023-04-18T01:14:04.204Z,9.63
2023-04-18T01:16:49.881Z,10.40
2023-04-18T01:19:40.810Z,8.38
2023-04-18T01:22:26.989Z,8.60
2023-04-18T01:25:12.501Z,8.95
2023-04-18T01:27:58.846Z,8.38
2023-04-18T01:30:46.558Z,8.35
2023-04-18T01:33:32.045Z,8.50
2023-04-18T01:36:17.681Z,10.05
2023-04-18T01:39:04.078Z,9.90
2023-04-18T01:41:49.796Z,8.93
2023-04-18T01:44:35.438Z,8.52
2023-04-18T01:47:20.921Z,9.95
2023-04-18T01:50:06.862Z,9.63
2023-04-18T01:52:52.501Z,8.48
2023-04-18T01:55:37.907Z,9.82
2023-04-18T01:58:25.253Z,10.60
2023-04-18T02:01:11.149Z,10.10
2023-04-18T02:03:56.882Z,8.98
2023-04-18T02:06:42.882Z,9.10
2023-04-18T02:09:28.621Z,9.70
2023-04-18T02:12:13.995Z,9.07
2023-04-18T02:14:59.624Z,10.75
2023-04-18T02:17:45.897Z,10.90
2023-04-18T02:20:34.950Z,10.15
2023-04-18T02:23:20.392Z,7.53
2023-04-18T02:26:06.054Z,8.85
2023-04-18T02:28:51.941Z,10.23
2023-04-18T02:31:40.850Z,9.48
2023-04-18T02:34:26.512Z,9.15
2023-04-18T02:37:12.128Z,10.65
2023-04-18T02:39:59.600Z,10.27
2023-04-18T02:42:48.516Z,9.60
2023-04-18T02:45:34.080Z,10.13
2023-04-18T02:48:19.520Z,10.65
2023-04-18T02:51:06.421Z,9.35
2023-04-18T02:53:55.180Z,11.55
2023-04-18T02:56:42.971Z,11.35
2023-04-18T02:59:34.777Z,10.85
2023-04-18T03:02:31.958Z,10.13
2023-04-18T03:05:24.730Z,13.45
2023-04-18T03:08:13.858Z,10.38
2023-04-18T03:10:59.719Z,13.98
2023-04-18T03:13:47.184Z,10.20
2023-04-18T03:16:33.429Z,11.82
2023-04-18T03:19:22.024Z,12.73
2023-04-18T03:22:10.053Z,11.70
2023-04-18T03:25:02.845Z,13.45
2023-04-18T03:28:08.922Z,9.50
2023-04-18T03:30:54.401Z,12.80
2023-04-18T03:33:39.988Z,9.55
2023-04-18T03:36:28.920Z,11.52
2023-04-18T03:39:14.820Z,10.43
2023-04-18T03:42:02.134Z,10.52
2023-04-18T03:44:47.796Z,15.48
2023-04-18T03:47:33.713Z,12.27
2023-04-18T03:50:19.818Z,10.52
2023-04-18T03:53:06.752Z,16.13
2023-04-18T03:55:54.775Z,10.27
2023-04-18T03:58:43.743Z,10.85
2023-04-18T04:01:29.319Z,11.48
2023-04-18T04:04:15.663Z,13.52
2023-04-18T04:07:01.841Z,14.25
2023-04-18T04:09:48.902Z,14.55
2023-04-18T04:12:34.860Z,12.07
2023-04-18T04:15:20.519Z,11.38
2023-04-18T04:18:11.636Z,12.90
2023-04-18T04:21:01.152Z,13.35
2023-04-18T04:23:57.035Z,12.40
2023-04-18T04:26:50.851Z,14.70
2023-04-18T04:29:41.268Z,13.48
2023-04-18T04:32:27.665Z,11.30
2023-04-18T04:35:13.752Z,9.48
2023-04-18T04:38:01.734Z,12.15
2023-04-18T04:40:54.064Z,12.18
2023-04-18T04:43:41.345Z,10.25
2023-04-18T04:46:30.393Z,9.73
2023-04-18T04:49:16.758Z,12.05
2023-04-18T04:52:03.148Z,12.07
2023-04-18T04:54:49.731Z,11.23
2023-04-18T04:57:37.631Z,10.75
2023-04-18T05:00:34.005Z,10.88
2023-04-18T05:03:19.917Z,8.68
2023-04-18T05:06:05.972Z,10.73
2023-04-18T05:08:51.680Z,13.50
2023-04-18T05:11:37.366Z,11.90
2023-04-18T05:14:23.146Z,12.18
2023-04-18T05:17:08.943Z,13.75
2023-04-18T05:19:54.733Z,11.52
2023-04-18T05:22:40.566Z,9.57
2023-04-18T05:25:26.950Z,11.13
2023-04-18T05:28:12.588Z,12.07
2023-04-18T05:31:01.503Z,9.00
2023-04-18T05:33:47.278Z,11.45
2023-04-18T05:36:33.116Z,12.18
2023-04-18T05:39:18.765Z,10.00
2023-04-18T05:42:04.257Z,9.25
2023-04-18T05:44:49.793Z,10.63
2023-04-18T05:47:35.573Z,12.07
2023-04-18T05:50:21.651Z,10.85
2023-04-18T05:53:07.292Z,9.55
2023-04-18T05:55:52.838Z,12.02
2023-04-18T05:58:38.530Z,12.50
2023-04-18T06:01:24.050Z,11.18
2023-04-18T06:04:09.738Z,11.95
2023-04-18T06:06:54.989Z,12.15
2023-04-18T06:09:40.514Z,9.07
2023-04-18T06:12:26.162Z,11.07
2023-04-18T06:15:11.769Z,12.05
2023-04-18T06:17:57.252Z,11.95
2023-04-18T06:20:44.058Z,11.02
2023-04-18T06:23:29.827Z,9.95
2023-04-18T06:26:15.925Z,13.05
2023-04-18T06:29:01.423Z,10.90
2023-04-18T06:31:48.534Z,10.38
2023-04-18T06:34:34.155Z,11.88
2023-04-18T06:37:20.016Z,10.50
2023-04-18T06:40:06.588Z,10.13
2023-04-18T06:42:52.412Z,12.45
2023-04-18T06:45:38.345Z,11.25
2023-04-18T06:48:23.993Z,10.80
2023-04-18T06:51:09.452Z,12.38
2023-04-18T06:53:55.003Z,8.68
2023-04-18T06:56:40.819Z,10.70
2023-04-18T06:59:27.215Z,12.32
2023-04-18T07:02:13.242Z,10.57
2023-04-18T07:04:58.954Z,10.55
2023-04-18T07:07:44.543Z,10.95
2023-04-18T07:10:30.124Z,13.60
2023-04-18T07:13:16.131Z,9.88
2023-04-18T07:16:02.191Z,11.10
2023-04-18T07:18:47.457Z,11.38
2023-04-18T07:21:33.052Z,11.27
2023-04-18T07:24:18.416Z,11.95
2023-04-18T07:27:03.838Z,11.48
2023-04-18T07:29:51.056Z,11.95
2023-04-18T07:32:36.566Z,9.68
2023-04-18T07:35:22.576Z,10.60
2023-04-18T07:38:08.624Z,10.18
2023-04-18T07:40:58.676Z,9.20
2023-04-18T07:43:44.982Z,9.98
2023-04-18T07:46:32.441Z,11.43
2023-04-18T07:49:18.352Z,10.23
2023-04-18T07:52:04.525Z,9.27
2023-04-18T07:54:50.441Z,12.17
2023-04-18T07:57:35.923Z,9.82
2023-04-18T08:00:21.638Z,9.93
2023-04-18T08:03:07.809Z,10.57
2023-04-18T08:05:53.730Z,11.55
2023-04-18T08:08:39.535Z,11.02
2023-04-18T08:11:24.693Z,10.52
2023-04-18T08:14:10.189Z,9.43
2023-04-18T08:16:55.800Z,9.38
2023-04-18T08:19:41.520Z,10.73
2023-04-18T08:22:26.894Z,9.48
2023-04-18T08:25:12.721Z,9.77
2023-04-18T08:27:58.939Z,9.57
2023-04-18T08:30:48.784Z,8.02
2023-04-18T08:33:34.516Z,9.30
2023-04-18T08:36:20.123Z,11.40
2023-04-18T08:39:06.500Z,11.10
2023-04-18T08:41:59.555Z,10.10
2023-04-18T08:44:46.773Z,10.90
2023-04-18T08:47:35.359Z,9.60
2023-04-18T08:50:21.490Z,11.50
2023-04-18T08:53:07.564Z,9.07
2023-04-18T08:55:54.519Z,9.65
2023-04-18T08:58:40.455Z,9.20
2023-04-18T09:01:57.215Z,10.73
2023-04-18T09:04:45.517Z,7.95
2023-04-18T09:07:31.143Z,8.82
2023-04-18T09:10:26.430Z,9.07
2023-04-18T09:13:12.550Z,10.93
2023-04-18T09:15:59.248Z,9.32
2023-04-18T09:19:13.131Z,9.35
2023-04-18T09:22:01.060Z,10.05
2023-04-18T09:24:52.838Z,8.73
2023-04-18T09:27:38.307Z,8.65
2023-04-18T09:30:33.142Z,9.52
2023-04-18T09:33:29.149Z,8.07
2023-04-18T09:36:28.657Z,8.02
2023-04-18T09:39:27.304Z,6.75
2023-04-18T09:42:13.981Z,7.65
2023-04-18T09:45:05.613Z,7.82
2023-04-18T09:47:52.175Z,9.90
2023-04-18T09:50:40.290Z,9.38
2023-04-18T09:53:26.685Z,10.05
2023-04-18T09:56:24.031Z,8.88
2023-04-18T09:59:11.400Z,11.82
2023-04-18T10:01:59.229Z,16.52
2023-04-18T10:04:46.946Z,7.78
2023-04-18T10:07:33.183Z,11.77
2023-04-18T10:10:19.217Z,9.95
2023-04-18T10:13:07.126Z,11.55
2023-04-18T10:15:52.928Z,8.60
2023-04-18T10:18:38.888Z,11.88
2023-04-18T10:21:24.780Z,16.23
2023-04-18T10:24:48.664Z,15.70
2023-04-18T10:27:49.691Z,12.95
2023-04-18T10:30:42.575Z,11.98
2023-04-18T10:33:42.416Z,9.80
2023-04-18T10:36:28.781Z,12.15
2023-04-18T10:39:23.240Z,11.70
2023-04-18T10:42:08.825Z,9.57
2023-04-18T10:45:17.280Z,17.65
2023-04-18T10:48:22.097Z,8.95
2023-04-18T10:51:15.724Z,7.93
2023-04-18T10:54:02.371Z,9.77
2023-04-18T10:56:55.189Z,9.50
2023-04-18T10:59:51.173Z,9.02
2023-04-18T11:02:39.186Z,10.13
2023-04-18T11:05:28.014Z,9.32
2023-04-18T11:08:24.263Z,7.88
2023-04-18T11:11:11.412Z,7.32
2023-04-18T11:13:58.672Z,9.05
2023-04-18T11:16:44.226Z,8.40
2023-04-18T11:19:29.957Z,7.53
2023-04-18T11:22:15.999Z,8.45
2023-04-18T11:25:07.236Z,7.10
2023-04-18T11:27:52.984Z,7.60
2023-04-18T11:30:40.862Z,8.45
2023-04-18T11:33:29.078Z,7.18
2023-04-18T11:36:14.826Z,7.25
2023-04-18T11:39:01.055Z,7.28
2023-04-18T11:41:50.489Z,6.88
2023-04-18T11:44:39.764Z,7.68
2023-04-18T11:47:28.797Z,8.23
2023-04-18T11:50:14.730Z,7.35
2023-04-18T11:52:59.943Z,7.25
2023-04-18T11:55:55.968Z,6.53
2023-04-18T11:58:42.207Z,6.50
2023-04-18T12:01:27.865Z,7.20
2023-04-18T12:04:14.456Z,7.57
2023-04-18T12:07:00.977Z,6.45
2023-04-18T12:09:46.657Z,7.47
2023-04-18T12:12:32.371Z,7.45
2023-04-18T12:15:18.949Z,7.75
2023-04-18T12:18:06.210Z,6.30
2023-04-18T12:20:54.206Z,8.15
2023-04-18T12:23:42.524Z,7.03
2023-04-18T12:26:27.997Z,7.82
2023-04-18T12:29:13.732Z,7.32
2023-04-18T12:31:59.355Z,5.88
2023-04-18T12:34:45.037Z,6.63
2023-04-18T12:37:30.720Z,6.78
2023-04-18T12:40:19.058Z,5.70
2023-04-18T12:43:04.765Z,6.15
2023-04-18T12:45:50.540Z,4.93
2023-04-18T12:48:36.371Z,5.00
2023-04-18T12:51:22.972Z,5.90
2023-04-18T12:54:08.997Z,5.30
2023-04-18T12:56:54.657Z,5.05
2023-04-18T12:59:40.095Z,4.88
2023-04-18T13:02:26.646Z,4.68
2023-04-18T13:05:14.320Z,4.95
2023-04-18T13:08:15.392Z,5.00
2023-04-18T13:11:02.853Z,5.25
2023-04-18T13:13:48.417Z,4.50
2023-04-18T13:16:33.829Z,3.90
2023-04-18T13:19:19.261Z,6.03
2023-04-18T13:22:04.865Z,4.80
2023-04-18T13:24:50.581Z,5.93
2023-04-18T13:27:41.816Z,5.30
2023-04-18T13:30:27.751Z,6.07
2023-04-18T13:33:13.463Z,6.88
2023-04-18T13:35:58.813Z,7.03
2023-04-18T13:38:44.194Z,6.25
2023-04-18T13:41:30.146Z,5.80
2023-04-18T13:44:15.981Z,6.50
2023-04-18T13:47:02.803Z,6.03
2023-04-18T13:49:48.384Z,7.28
2023-04-18T13:52:33.721Z,5.60
2023-04-18T13:55:19.810Z,5.72
2023-04-18T13:58:07.062Z,5.65
2023-04-18T14:00:54.036Z,6.95
2023-04-18T14:03:41.277Z,5.93
2023-04-18T14:06:28.961Z,6.35
2023-04-18T14:09:14.676Z,5.85
2023-04-18T14:12:00.306Z,5.57
2023-04-18T14:14:45.974Z,6.25
2023-04-18T14:17:31.581Z,4.78
2023-04-18T14:20:20.523Z,4.93
2023-04-18T14:23:06.075Z,4.82
2023-04-18T14:25:51.825Z,4.80
2023-04-18T14:28:37.553Z,4.32
2023-04-18T14:31:23.081Z,5.28
2023-04-18T14:34:09.602Z,6.20
2023-04-18T14:36:55.417Z,5.25
2023-04-18T14:39:41.151Z,4.82
2023-04-18T14:42:27.312Z,5.97
2023-04-18T14:45:12.906Z,4.38
2023-04-18T14:47:59.279Z,4.82
2023-04-18T14:50:44.900Z,5.00
2023-04-18T14:53:30.647Z,5.18
2023-04-18T14:56:24.293Z,5.35
2023-04-18T14:59:10.031Z,5.13
2023-04-18T15:01:55.774Z,5.00
2023-04-18T15:04:41.206Z,5.18
2023-04-18T15:07:27.027Z,6.78
2023-04-18T15:10:13.108Z,4.50
2023-04-18T15:12:58.124Z,5.80
2023-04-18T15:15:50.979Z,5.72
2023-04-18T15:18:37.007Z,5.80
2023-04-18T15:21:22.834Z,6.32
2023-04-18T15:24:08.347Z,5.78
2023-04-18T15:26:53.885Z,5.90
2023-04-18T15:29:39.434Z,5.70
2023-04-18T15:32:25.049Z,5.88
2023-04-18T15:35:11.835Z,6.07
2023-04-18T15:37:57.759Z,5.97
2023-04-18T15:40:46.117Z,5.75
2023-04-18T15:43:32.109Z,7.00
2023-04-18T15:46:17.685Z,5.68
2023-04-18T15:49:03.500Z,7.28
2023-04-18T15:51:48.885Z,7.05
2023-04-18T15:54:35.733Z,7.05
2023-04-18T15:57:21.861Z,6.80
2023-04-18T16:00:16.225Z,6.50
2023-04-18T16:03:01.891Z,6.28
2023-04-18T16:05:47.806Z,7.10
2023-04-18T16:08:33.580Z,6.68
2023-04-18T16:11:21.705Z,6.32
2023-04-18T16:14:07.483Z,6.47
2023-04-18T16:16:55.020Z,7.15
2023-04-18T16:19:41.065Z,6.30
2023-04-18T16:22:26.877Z,5.95
2023-04-18T16:25:12.165Z,5.32
2023-04-18T16:27:57.521Z,6.50
2023-04-18T16:30:43.954Z,5.85
2023-04-18T16:33:29.541Z,5.10
2023-04-18T16:36:15.467Z,5.65
2023-04-18T16:39:01.220Z,5.63
2023-04-18T16:41:46.575Z,6.45
2023-04-18T16:44:33.271Z,6.53
2023-04-18T16:47:19.261Z,5.85
2023-04-18T16:50:05.924Z,6.45
2023-04-18T16:52:51.121Z,6.07
2023-04-18T16:55:36.680Z,5.50
2023-04-18T16:58:23.202Z,6.53
2023-04-18T17:01:09.049Z,5.47
2023-04-18T17:03:54.579Z,6.32
2023-04-18T17:06:42.190Z,7.15
2023-04-18T17:09:27.877Z,8.70
2023-04-18T17:12:13.187Z,12.02
2023-04-18T17:15:02.589Z,11.45
2023-04-18T17:17:48.542Z,7.07
2023-04-18T17:20:35.924Z,8.73
2023-04-18T17:26:08.592Z,9.35
2023-04-18T17:28:54.295Z,7.57
2023-04-18T17:31:39.855Z,5.72
2023-04-18T17:34:25.656Z,6.03
2023-04-18T17:37:11.697Z,6.65
2023-04-18T17:39:59.012Z,5.00
2023-04-18T17:42:44.407Z,6.10
2023-04-18T17:45:29.951Z,7.15
2023-04-18T17:48:16.350Z,6.28
2023-04-18T17:51:02.228Z,6.50
2023-04-18T17:53:47.933Z,8.10
2023-04-18T17:56:33.437Z,8.70
2023-04-18T17:59:19.145Z,9.05
2023-04-18T18:02:05.549Z,9.25
2023-04-18T18:04:51.708Z,7.20
2023-04-18T18:07:38.382Z,6.40
2023-04-18T18:10:24.535Z,7.30
2023-04-18T18:13:10.107Z,6.65
2023-04-18T18:15:57.252Z,7.15
2023-04-18T18:18:46.539Z,7.28
2023-04-18T18:21:31.799Z,6.93
2023-04-18T18:24:18.752Z,20.23
2023-04-18T18:27:04.697Z,8.32
2023-04-18T18:29:51.380Z,7.50
2023-04-18T18:32:36.893Z,5.72
2023-04-18T18:35:22.350Z,7.03
2023-04-18T18:38:08.060Z,4.40
2023-04-18T18:40:53.538Z,6.88
2023-04-18T18:43:38.929Z,5.90
2023-04-18T18:46:24.569Z,5.95
2023-04-18T18:49:10.360Z,6.97
2023-04-18T18:51:56.955Z,6.65
2023-04-18T18:54:42.866Z,5.13
2023-04-18T18:57:28.398Z,9.98
2023-04-18T19:00:14.309Z,6.50
2023-04-18T19:03:00.404Z,14.38
2023-04-18T19:05:46.549Z,6.85
2023-04-18T19:08:31.925Z,9.45
2023-04-18T19:11:18.910Z,5.65
2023-04-18T19:14:04.693Z,10.50
2023-04-18T19:16:50.720Z,5.88
2023-04-18T19:19:36.563Z,6.70
2023-04-18T19:22:22.371Z,5.32
2023-04-18T19:25:08.926Z,5.88
2023-04-18T19:27:54.145Z,7.28
2023-04-18T19:30:40.160Z,8.63
2023-04-18T19:33:26.352Z,6.18
2023-04-18T19:36:12.484Z,6.80
2023-04-18T19:38:58.217Z,6.72
2023-04-18T19:41:43.639Z,13.38
2023-04-18T19:44:31.241Z,6.50
2023-04-18T19:47:16.752Z,6.00
2023-04-18T19:50:02.365Z,6.43
2023-04-18T19:52:48.159Z,6.15
2023-04-18T19:55:33.337Z,7.30
2023-04-18T19:58:45.223Z,7.03
2023-04-18T20:01:31.282Z,5.68
2023-04-18T20:04:17.186Z,6.13
2023-04-18T20:07:03.142Z,7.10
2023-04-18T20:09:48.670Z,6.20
2023-04-18T20:12:34.457Z,7.05
2023-04-18T20:15:20.023Z,6.68
2023-04-18T20:18:05.494Z,6.90
2023-04-18T20:20:51.363Z,7.72
2023-04-18T20:23:37.703Z,7.50
2023-04-18T20:26:23.403Z,7.97
2023-04-18T20:29:08.971Z,7.13
2023-04-18T20:31:54.592Z,8.75
2023-04-18T20:34:40.360Z,8.38
2023-04-18T20:37:27.813Z,6.57
2023-04-18T20:40:13.397Z,8.93
2023-04-18T20:42:58.983Z,9.10
2023-04-18T20:45:46.032Z,9.73
2023-04-18T20:48:31.651Z,9.30
2023-04-18T20:51:17.219Z,9.45
2023-04-18T20:54:03.457Z,9.27
2023-04-18T20:56:49.018Z,9.23
2023-04-18T20:59:34.454Z,9.68
2023-04-18T21:02:19.915Z,11.07
2023-04-18T21:05:05.869Z,9.85
2023-04-18T21:07:51.332Z,10.38
2023-04-18T21:10:36.809Z,9.43
2023-04-18T21:13:22.064Z,10.85
2023-04-18T21:16:10.247Z,7.18
2023-04-18T21:18:56.085Z,8.43
2023-04-18T21:21:41.557Z,8.88
2023-04-18T21:24:26.920Z,11.90
2023-04-18T21:27:12.280Z,9.50
2023-04-18T21:29:57.588Z,6.65
2023-04-18T21:32:43.083Z,9.85
2023-04-18T21:35:30.084Z,7.30
2023-04-18T21:38:15.815Z,8.55
2023-04-18T21:41:01.790Z,9.02
2023-04-18T21:43:47.853Z,7.97
2023-04-18T21:46:33.620Z,8.38
2023-04-18T21:49:19.676Z,6.45
2023-04-18T21:52:05.382Z,9.43
2023-04-18T21:54:51.178Z,8.50
2023-04-18T21:57:36.530Z,9.15
2023-04-18T22:00:22.079Z,8.18
2023-04-18T22:03:08.892Z,8.23
2023-04-18T22:05:58.174Z,9.43
2023-04-18T22:08:43.887Z,7.88
2023-04-18T22:11:29.393Z,8.63
2023-04-18T22:14:15.061Z,8.60
2023-04-18T22:17:04.877Z,7.82
2023-04-18T22:19:50.714Z,9.70
2023-04-18T22:22:35.855Z,10.20
2023-04-18T22:25:21.530Z,9.07
2023-04-18T22:28:07.291Z,9.13
2023-04-18T22:30:53.075Z,9.50
2023-04-18T22:33:38.505Z,9.88
2023-04-18T22:36:25.084Z,9.38
2023-04-18T22:39:12.134Z,9.88
2023-04-18T22:41:57.528Z,10.52
2023-04-18T22:44:42.908Z,11.02
2023-04-18T22:47:28.460Z,13.20
2023-04-18T22:50:14.729Z,8.20
2023-04-18T22:53:00.347Z,10.93
2023-04-18T22:55:46.469Z,10.93
2023-04-18T22:58:32.013Z,10.50
2023-04-18T23:01:17.935Z,9.52
2023-04-18T23:04:03.735Z,9.93
2023-04-18T23:06:49.511Z,9.95
2023-04-18T23:09:35.094Z,8.48
2023-04-18T23:12:21.101Z,11.32
2023-04-18T23:15:07.297Z,9.07
2023-04-18T23:17:53.885Z,10.63
2023-04-18T23:20:39.717Z,10.75
2023-04-18T23:23:25.268Z,11.48
2023-04-18T23:26:16.841Z,10.95
2023-04-18T23:29:02.425Z,13.95
2023-04-18T23:31:48.222Z,11.73
2023-04-18T23:34:33.656Z,17.25
2023-04-18T23:37:19.533Z,12.48
2023-04-18T23:40:06.973Z,10.68
2023-04-18T23:42:52.604Z,11.90
2023-04-18T23:45:38.095Z,9.55
2023-04-18T23:48:23.569Z,10.68
2023-04-18T23:51:09.130Z,10.85
2023-04-18T23:53:54.506Z,10.88
2023-04-18T23:56:39.833Z,9.60
2023-04-18T23:59:25.357Z,11.15
